createdAt,value
2022-08-08T00:02:03.446Z,72.16
2022-08-08T00:04:56.698Z,72.41
2022-08-08T00:07:42.311Z,72.54
2022-08-08T00:10:28.336Z,72.68
2022-08-08T00:13:20.797Z,72.88
2022-08-08T00:16:09.507Z,73.03
2022-08-08T00:19:22.981Z,73.10
2022-08-08T00:22:12.995Z,73.39
2022-08-08T00:24:50.823Z,73.63
2022-08-08T00:27:21.632Z,73.72
2022-08-08T00:30:01.439Z,73.79
2022-08-08T00:33:02.775Z,73.94
2022-08-08T00:36:08.438Z,74.26
2022-08-08T00:41:06.863Z,74.38
2022-08-08T00:42:42.096Z,74.55
2022-08-08T00:45:39.937Z,74.55
2022-08-08T00:48:34.017Z,74.82
2022-08-08T00:51:51.766Z,75.10
2022-08-08T00:55:05.116Z,75.30
2022-08-08T00:58:13.616Z,75.57
2022-08-08T01:01:36.410Z,75.79
2022-08-08T01:04:44.160Z,76.01
2022-08-08T01:08:02.307Z,76.12
2022-08-08T01:10:34.596Z,76.24
2022-08-08T01:13:44.095Z,76.25
2022-08-08T01:16:46.422Z,76.39
2022-08-08T01:20:01.580Z,76.69
2022-08-08T01:23:05.985Z,76.85
2022-08-08T01:26:11.382Z,77.25
2022-08-08T01:29:11.066Z,77.32
2022-08-08T01:32:17.504Z,77.46
2022-08-08T01:35:17.079Z,77.62
2022-08-08T01:38:26.140Z,77.79
2022-08-08T01:41:34.275Z,78.01
2022-08-08T01:44:54.931Z,78.08
2022-08-08T01:48:23.641Z,78.11
2022-08-08T01:51:32.029Z,78.42
2022-08-08T01:55:46.044Z,78.36
2022-08-08T01:58:13.057Z,78.58
2022-08-08T02:01:17.261Z,78.90
2022-08-08T02:04:20.371Z,79.13
2022-08-08T02:07:02.526Z,79.02
2022-08-08T02:10:45.218Z,79.20
2022-08-08T02:13:52.813Z,79.30
2022-08-08T02:16:40.638Z,79.39
2022-08-08T02:20:07.777Z,79.51
2022-08-08T02:23:16.511Z,79.78
2022-08-08T02:26:10.075Z,79.93
2022-08-08T02:29:00.443Z,80.05
2022-08-08T02:32:22.905Z,80.15
2022-08-08T02:36:04.598Z,80.45
2022-08-08T02:39:42.313Z,80.77
2022-08-08T02:42:43.084Z,81.31
2022-08-08T02:45:40.286Z,81.50
2022-08-08T02:48:53.986Z,81.58
2022-08-08T02:52:02.146Z,81.66
2022-08-08T02:55:10.369Z,81.55
2022-08-08T02:58:32.195Z,81.55
2022-08-08T03:01:14.945Z,81.80
2022-08-08T03:05:02.648Z,82.08
2022-08-08T03:08:04.627Z,82.48
2022-08-08T03:10:53.419Z,82.72
2022-08-08T03:15:59.561Z,82.74
2022-08-08T03:16:53.204Z,82.87
2022-08-08T03:20:07.797Z,83.15
2022-08-08T03:22:56.872Z,83.34
2022-08-08T03:25:34.129Z,83.62
2022-08-08T03:28:20.935Z,83.60
2022-08-08T03:31:13.533Z,83.78
2022-08-08T03:33:55.934Z,83.94
2022-08-08T03:36:30.361Z,84.11
2022-08-08T03:39:14.160Z,84.00
2022-08-08T03:42:26.957Z,84.36
2022-08-08T03:44:35.317Z,84.48
2022-08-08T03:47:14.187Z,84.42
2022-08-08T03:49:59.894Z,84.45
2022-08-08T03:52:32.389Z,84.58
2022-08-08T03:55:19.838Z,84.63
2022-08-08T03:58:31.806Z,84.65
2022-08-08T04:01:02.196Z,84.49
2022-08-08T04:03:58.354Z,84.48
2022-08-08T04:06:30.511Z,84.52
2022-08-08T04:09:11.431Z,84.33
2022-08-08T04:11:57.864Z,84.16
2022-08-08T04:14:34.312Z,84.03
2022-08-08T04:17:07.069Z,84.24
2022-08-08T04:19:51.907Z,84.44
2022-08-08T04:22:24.234Z,84.62
2022-08-08T04:24:53.925Z,84.59
2022-08-08T04:28:02.799Z,84.66
2022-08-08T04:30:18.131Z,84.77
2022-08-08T04:32:50.014Z,84.83
2022-08-08T04:35:22.551Z,84.97
2022-08-08T04:37:53.921Z,85.07
2022-08-08T04:40:24.175Z,85.10
2022-08-08T04:42:57.128Z,85.13
2022-08-08T04:45:27.059Z,85.35
2022-08-08T04:47:57.325Z,85.61
2022-08-08T04:50:34.274Z,85.65
2022-08-08T04:53:14.245Z,85.75
2022-08-08T04:55:56.826Z,85.81
2022-08-08T04:58:25.626Z,86.09
2022-08-08T05:00:54.696Z,86.38
2022-08-08T05:04:11.160Z,86.40
2022-08-08T05:06:18.154Z,86.73
2022-08-08T05:08:54.625Z,86.94
2022-08-08T05:11:26.266Z,87.17
2022-08-08T05:13:58.658Z,87.18
2022-08-08T05:16:51.256Z,87.10
2022-08-08T05:20:09.270Z,87.17
2022-08-08T05:22:10.561Z,86.95
2022-08-08T05:24:39.192Z,86.83
2022-08-08T05:27:09.218Z,86.66
2022-08-08T05:29:38.152Z,86.62
2022-08-08T05:32:09.598Z,86.44
2022-08-08T05:34:49.284Z,85.99
2022-08-08T05:37:28.275Z,85.72
2022-08-08T05:40:10.257Z,85.59
2022-08-08T05:42:49.818Z,85.43
2022-08-08T05:45:25.312Z,85.23
2022-08-08T05:48:08.638Z,84.86
2022-08-08T05:50:40.021Z,84.72
2022-08-08T05:53:54.268Z,84.61
2022-08-08T05:56:11.494Z,84.23
2022-08-08T05:58:53.638Z,84.18
2022-08-08T06:01:51.128Z,83.90
2022-08-08T06:04:23.676Z,83.79
2022-08-08T06:06:56.677Z,83.74
2022-08-08T06:09:58.421Z,83.67
2022-08-08T06:12:29.952Z,83.56
2022-08-08T06:15:03.235Z,83.56
2022-08-08T06:17:51.306Z,83.60
2022-08-08T06:20:25.658Z,83.62
2022-08-08T06:22:56.492Z,83.38
2022-08-08T06:26:36.139Z,83.09
2022-08-08T06:28:29.293Z,82.86
2022-08-08T06:31:05.218Z,82.46
2022-08-08T06:34:25.742Z,82.25
2022-08-08T06:37:00.198Z,81.88
2022-08-08T06:39:33.314Z,81.64
2022-08-08T06:42:03.091Z,81.17
2022-08-08T06:44:32.933Z,80.92
2022-08-08T06:47:02.392Z,80.85
2022-08-08T06:49:55.274Z,80.82
2022-08-08T06:52:22.192Z,80.28
2022-08-08T06:54:51.314Z,80.41
2022-08-08T06:57:19.777Z,80.35
2022-08-08T07:00:01.714Z,80.18
2022-08-08T07:02:46.036Z,79.99
2022-08-08T07:05:20.368Z,79.30
2022-08-08T07:07:52.886Z,79.22
2022-08-08T07:10:26.383Z,78.80
2022-08-08T07:13:19.957Z,78.46
2022-08-08T07:16:10.377Z,78.13
2022-08-08T07:19:12.389Z,78.13
2022-08-08T07:22:05.679Z,77.62
2022-08-08T07:25:06.763Z,77.21
2022-08-08T07:28:01.966Z,76.66
2022-08-08T07:30:31.874Z,76.42
2022-08-08T07:33:01.444Z,76.22
2022-08-08T07:35:31.354Z,75.59
2022-08-08T07:38:18.453Z,75.12
2022-08-08T07:41:04.614Z,74.92
2022-08-08T07:43:37.052Z,74.84
2022-08-08T07:46:23.776Z,74.43
2022-08-08T07:48:55.547Z,73.90
2022-08-08T07:51:44.826Z,73.46
2022-08-08T07:54:26.750Z,73.17
2022-08-08T07:57:19.788Z,72.70
2022-08-08T08:00:16.767Z,72.22
2022-08-08T08:03:03.715Z,71.91
2022-08-08T08:05:39.447Z,71.60
2022-08-08T08:08:54.567Z,71.23
2022-08-08T08:11:33.559Z,70.35
2022-08-08T08:14:09.663Z,69.80
2022-08-08T08:16:41.278Z,69.45
2022-08-08T08:19:12.798Z,69.14
2022-08-08T08:21:56.905Z,68.49
2022-08-08T08:24:31.923Z,67.99
2022-08-08T08:27:02.738Z,67.89
2022-08-08T08:29:32.562Z,67.71
2022-08-08T08:32:05.514Z,67.47
2022-08-08T08:34:36.983Z,67.04
2022-08-08T08:37:12.077Z,66.82
2022-08-08T08:40:00.416Z,66.61
2022-08-08T08:42:36.565Z,66.21
2022-08-08T08:45:21.993Z,65.80
2022-08-08T08:47:54.149Z,65.63
2022-08-08T08:50:33.129Z,65.63
2022-08-08T08:53:27.787Z,65.31
2022-08-08T08:56:01.943Z,65.00
2022-08-08T08:58:42.815Z,64.62
2022-08-08T09:01:15.339Z,64.34
2022-08-08T09:03:51.511Z,63.90
2022-08-08T09:06:33.212Z,63.67
2022-08-08T09:09:26.111Z,63.68
2022-08-08T09:12:07.861Z,63.68
2022-08-08T09:14:42.261Z,63.64
2022-08-08T09:17:31.639Z,63.39
2022-08-08T09:21:58.132Z,63.26
2022-08-08T09:22:58.494Z,63.11
2022-08-08T09:25:36.050Z,62.43
2022-08-08T09:28:35.708Z,61.65
2022-08-08T09:31:17.119Z,61.04
2022-08-08T09:34:14.666Z,60.45
2022-08-08T09:36:51.729Z,60.80
2022-08-08T09:40:10.453Z,60.93
2022-08-08T09:42:51.382Z,61.04
2022-08-08T09:46:00.810Z,59.99
2022-08-08T09:48:26.103Z,59.30
2022-08-08T09:51:04.928Z,58.67
2022-08-08T09:54:09.472Z,58.24
2022-08-08T09:56:54.632Z,57.90
2022-08-08T10:00:01.839Z,58.20
2022-08-08T10:02:28.918Z,57.82
2022-08-08T10:05:15.208Z,57.74
2022-08-08T10:08:00.312Z,57.25
2022-08-08T10:10:41.309Z,56.47
2022-08-08T10:13:32.455Z,55.85
2022-08-08T10:16:05.404Z,55.70
2022-08-08T10:18:39.672Z,55.20
2022-08-08T10:21:25.091Z,55.16
2022-08-08T10:24:04.676Z,54.83
2022-08-08T10:26:56.913Z,54.29
2022-08-08T10:29:58.759Z,53.78
2022-08-08T10:32:48.263Z,53.67
2022-08-08T10:36:09.622Z,53.14
2022-08-08T10:38:16.274Z,52.58
2022-08-08T10:40:50.479Z,52.35
2022-08-08T10:43:20.062Z,52.15
2022-08-08T10:45:56.003Z,51.85
2022-08-08T10:48:56.868Z,51.33
2022-08-08T10:51:40.892Z,51.25
2022-08-08T10:54:25.147Z,50.87
2022-08-08T10:57:08.941Z,50.45
2022-08-08T10:59:39.857Z,50.58
2022-08-08T11:02:11.379Z,50.43
2022-08-08T11:04:53.639Z,50.22
2022-08-08T11:08:31.098Z,49.47
2022-08-08T11:10:28.625Z,48.10
2022-08-08T11:15:59.005Z,45.76
2022-08-08T11:18:33.636Z,46.17
2022-08-08T11:21:08.892Z,47.22
2022-08-08T11:23:42.262Z,48.23
2022-08-08T11:26:19.102Z,48.34
2022-08-08T11:28:51.081Z,48.19
2022-08-08T11:31:21.001Z,49.15
2022-08-08T11:34:03.055Z,49.53
2022-08-08T11:36:36.449Z,49.49
2022-08-08T11:39:10.883Z,48.91
2022-08-08T11:41:43.349Z,48.29
2022-08-08T11:44:15.760Z,47.44
2022-08-08T11:46:44.867Z,47.36
2022-08-08T11:49:17.131Z,46.46
2022-08-08T11:51:49.914Z,46.43
2022-08-08T11:54:38.322Z,46.45
2022-08-08T11:57:18.130Z,46.51
2022-08-08T12:00:05.907Z,46.80
2022-08-08T12:02:52.146Z,46.92
2022-08-08T12:05:38.873Z,47.11
2022-08-08T12:08:07.873Z,47.02
2022-08-08T12:10:50.905Z,46.57
2022-08-08T12:13:37.978Z,46.06
2022-08-08T12:16:20.674Z,44.82
2022-08-08T12:19:05.800Z,44.58
2022-08-08T12:22:00.375Z,44.41
2022-08-08T12:24:27.972Z,44.42
2022-08-08T12:26:58.896Z,44.51
2022-08-08T12:29:40.580Z,44.57
2022-08-08T12:32:20.093Z,44.93
2022-08-08T12:35:01.184Z,44.66
2022-08-08T12:37:40.161Z,45.00
2022-08-08T12:40:22.949Z,45.33
2022-08-08T12:42:53.540Z,45.29
2022-08-08T12:46:00.135Z,44.67
2022-08-08T12:48:35.693Z,44.09
2022-08-08T12:51:11.108Z,44.04
2022-08-08T12:54:14.480Z,43.65
2022-08-08T12:56:53.450Z,43.20
2022-08-08T12:59:44.680Z,42.94
2022-08-08T13:02:28.274Z,43.49
2022-08-08T13:05:00.348Z,43.68
2022-08-08T13:08:04.100Z,43.86
2022-08-08T13:10:36.513Z,44.00
2022-08-08T13:13:37.242Z,44.26
2022-08-08T13:16:25.559Z,43.69
2022-08-08T13:19:01.633Z,43.81
2022-08-08T13:21:58.114Z,43.71
2022-08-08T13:24:42.444Z,43.23
2022-08-08T13:27:22.645Z,42.49
2022-08-08T13:30:07.074Z,42.22
2022-08-08T13:32:39.609Z,41.55
2022-08-08T13:35:24.926Z,41.25
2022-08-08T13:38:06.864Z,41.33
2022-08-08T13:40:40.964Z,41.35
2022-08-08T13:43:10.989Z,41.31
2022-08-08T13:45:40.954Z,41.46
2022-08-08T13:48:15.112Z,41.50
2022-08-08T13:50:53.855Z,41.06
2022-08-08T13:53:33.863Z,41.20
2022-08-08T13:56:11.248Z,41.22
2022-08-08T13:58:56.541Z,40.69
2022-08-08T14:01:52.469Z,40.55
2022-08-08T14:04:26.001Z,39.92
2022-08-08T14:07:35.002Z,39.24
2022-08-08T14:10:16.974Z,38.84
2022-08-08T14:12:48.580Z,39.15
2022-08-08T14:15:39.916Z,39.45
2022-08-08T14:18:35.866Z,39.37
2022-08-08T14:21:20.872Z,39.18
2022-08-08T14:24:07.544Z,37.56
2022-08-08T14:26:45.855Z,36.71
2022-08-08T14:29:30.268Z,37.35
2022-08-08T14:32:12.767Z,37.66
2022-08-08T14:35:07.702Z,38.33
2022-08-08T14:38:00.272Z,39.04
2022-08-08T14:40:33.160Z,39.26
2022-08-08T14:43:31.076Z,40.02
2022-08-08T14:46:06.251Z,39.94
2022-08-08T14:48:57.074Z,39.74
2022-08-08T14:51:47.318Z,39.05
2022-08-08T14:54:28.763Z,39.29
2022-08-08T14:56:58.080Z,38.95
2022-08-08T14:59:50.291Z,38.86
2022-08-08T15:02:25.425Z,38.39
2022-08-08T15:05:08.170Z,38.33
2022-08-08T15:07:41.557Z,37.92
2022-08-08T15:10:16.350Z,38.00
2022-08-08T15:12:47.164Z,37.84
2022-08-08T15:15:18.800Z,37.93
2022-08-08T15:18:08.358Z,37.88
2022-08-08T15:20:39.348Z,37.81
2022-08-08T15:23:09.758Z,37.65
2022-08-08T15:25:43.397Z,37.68
2022-08-08T15:28:33.687Z,37.76
2022-08-08T15:31:01.760Z,37.43
2022-08-08T15:33:35.567Z,37.06
2022-08-08T15:36:18.935Z,36.82
2022-08-08T15:38:52.941Z,36.44
2022-08-08T15:41:24.843Z,36.18
2022-08-08T15:44:00.878Z,35.82
2022-08-08T15:46:35.093Z,35.87
2022-08-08T15:49:04.692Z,36.05
2022-08-08T15:51:33.705Z,35.89
2022-08-08T15:54:04.846Z,35.61
2022-08-08T15:56:33.855Z,35.73
2022-08-08T15:59:02.457Z,36.06
2022-08-08T16:01:40.627Z,35.77
2022-08-08T16:04:20.276Z,33.92
2022-08-08T16:06:58.734Z,34.01
2022-08-08T16:13:09.239Z,33.90
2022-08-08T16:13:09.903Z,33.89
2022-08-08T16:15:09.613Z,34.37
2022-08-08T16:18:06.084Z,34.70
2022-08-08T16:20:29.646Z,34.95
2022-08-08T16:22:58.212Z,35.46
2022-08-08T16:25:45.577Z,35.64
2022-08-08T16:28:22.904Z,36.08
2022-08-08T16:31:07.717Z,36.08
2022-08-08T16:33:39.316Z,36.06
2022-08-08T16:36:15.833Z,36.00
2022-08-08T16:38:47.508Z,35.97
2022-08-08T16:41:22.719Z,35.77
2022-08-08T16:43:52.237Z,36.03
2022-08-08T16:46:37.653Z,35.52
2022-08-08T16:49:10.564Z,35.58
2022-08-08T16:54:59.758Z,35.63
2022-08-08T16:55:01.327Z,35.43
2022-08-08T16:57:22.796Z,35.07
2022-08-08T16:59:53.804Z,35.12
2022-08-08T17:02:23.367Z,34.77
2022-08-08T17:05:12.815Z,34.88
2022-08-08T17:07:42.280Z,34.56
2022-08-08T17:10:11.507Z,34.69
2022-08-08T17:12:41.541Z,34.28
2022-08-08T17:15:17.910Z,34.66
2022-08-08T17:18:03.088Z,34.40
2022-08-08T17:20:33.106Z,34.36
2022-08-08T17:23:18.028Z,34.07
2022-08-08T17:25:57.576Z,34.16
2022-08-08T17:28:34.773Z,34.13
2022-08-08T17:31:39.603Z,34.03
2022-08-08T17:34:53.241Z,33.90
2022-08-08T17:37:00.857Z,34.16
2022-08-08T17:40:04.904Z,34.30
2022-08-08T17:42:22.106Z,34.47
2022-08-08T17:44:52.814Z,34.89
2022-08-08T17:47:23.765Z,34.36
2022-08-08T17:50:01.607Z,34.63
2022-08-08T17:52:34.306Z,34.98
2022-08-08T17:56:03.295Z,35.26
2022-08-08T17:57:54.484Z,35.71
2022-08-08T18:00:30.376Z,35.83
2022-08-08T18:03:08.707Z,35.96
2022-08-08T18:05:48.169Z,36.56
2022-08-08T18:08:38.229Z,37.06
2022-08-08T18:11:18.348Z,37.85
2022-08-08T18:13:47.759Z,38.42
2022-08-08T18:16:22.994Z,38.98
2022-08-08T18:18:56.412Z,39.43
2022-08-08T18:21:58.981Z,40.06
2022-08-08T18:24:22.074Z,41.24
2022-08-08T18:26:54.484Z,42.60
2022-08-08T18:29:33.976Z,43.54
2022-08-08T18:32:06.598Z,44.63
2022-08-08T18:34:42.606Z,45.42
2022-08-08T18:37:17.573Z,46.00
2022-08-08T18:40:00.491Z,45.91
2022-08-08T18:42:29.292Z,46.35
2022-08-08T18:44:57.981Z,46.67
2022-08-08T18:47:33.470Z,46.99
2022-08-08T18:50:03.118Z,47.58
2022-08-08T18:52:36.889Z,47.85
2022-08-08T18:55:09.481Z,48.22
2022-08-08T18:57:45.080Z,48.53
2022-08-08T19:00:20.333Z,49.00
2022-08-08T19:02:55.670Z,49.50
2022-08-08T19:05:34.532Z,49.73
2022-08-08T19:08:24.944Z,50.07
2022-08-08T19:11:01.718Z,50.40
2022-08-08T19:13:52.860Z,50.74
2022-08-08T19:16:28.488Z,51.14
2022-08-08T19:19:02.606Z,51.43
2022-08-08T19:21:33.264Z,51.60
2022-08-08T19:24:43.851Z,52.21
2022-08-08T19:27:08.844Z,52.59
2022-08-08T19:29:45.751Z,52.91
2022-08-08T19:32:22.050Z,53.39
2022-08-08T19:34:52.590Z,53.81
2022-08-08T19:37:43.147Z,54.04
2022-08-08T19:40:15.928Z,54.43
2022-08-08T19:42:47.323Z,54.54
2022-08-08T19:45:59.298Z,54.73
2022-08-08T19:48:28.792Z,55.02
2022-08-08T19:51:00.876Z,55.11
2022-08-08T19:53:51.327Z,55.35
2022-08-08T19:56:25.917Z,55.68
2022-08-08T19:59:12.376Z,55.88
2022-08-08T20:02:01.508Z,55.90
2022-08-08T20:04:30.489Z,56.35
2022-08-08T20:07:05.292Z,56.42
2022-08-08T20:09:56.181Z,56.73
2022-08-08T20:12:32.672Z,56.91
2022-08-08T20:15:16.302Z,57.03
2022-08-08T20:17:47.737Z,57.32
2022-08-08T20:20:20.442Z,57.58
2022-08-08T20:22:54.125Z,57.73
2022-08-08T20:25:29.940Z,57.98
2022-08-08T20:28:07.032Z,58.21
2022-08-08T20:30:55.651Z,58.30
2022-08-08T20:35:59.035Z,58.72
2022-08-08T20:38:36.966Z,58.91
2022-08-08T20:41:17.804Z,59.26
2022-08-08T20:43:50.021Z,59.40
2022-08-08T20:46:25.599Z,59.69
2022-08-08T20:48:58.504Z,59.91
2022-08-08T20:51:31.652Z,59.95
2022-08-08T20:54:07.697Z,60.30
2022-08-08T20:57:04.638Z,60.52
2022-08-08T20:59:31.689Z,60.80
2022-08-08T21:02:12.475Z,60.99
2022-08-08T21:04:43.657Z,61.00
2022-08-08T21:07:47.082Z,61.23
2022-08-08T21:10:12.760Z,61.45
2022-08-08T21:12:44.455Z,61.67
2022-08-08T21:15:16.472Z,62.13
2022-08-08T21:18:03.363Z,62.32
2022-08-08T21:20:34.590Z,62.42
2022-08-08T21:23:03.601Z,62.63
2022-08-08T21:25:37.572Z,62.85
2022-08-08T21:28:14.697Z,63.15
2022-08-08T21:30:45.254Z,63.42
2022-08-08T21:33:21.220Z,63.52
2022-08-08T21:36:17.843Z,63.47
2022-08-08T21:38:38.313Z,63.64
2022-08-08T21:41:06.798Z,63.90
2022-08-08T21:43:36.880Z,64.12
2022-08-08T21:48:21.657Z,64.16
2022-08-08T21:48:57.351Z,64.25
2022-08-08T21:54:18.178Z,64.36
2022-08-08T21:54:52.338Z,64.66
2022-08-08T21:57:09.499Z,64.95
2022-08-08T22:00:02.716Z,64.87
2022-08-08T22:02:26.716Z,65.08
2022-08-08T22:04:59.226Z,65.31
2022-08-08T22:07:39.804Z,65.46
2022-08-08T22:10:18.401Z,65.57
2022-08-08T22:13:17.767Z,65.59
2022-08-08T22:15:58.718Z,65.64
2022-08-08T22:18:35.268Z,65.79
2022-08-08T22:21:13.972Z,66.14
2022-08-08T22:23:52.227Z,66.12
2022-08-08T22:26:28.597Z,66.41
2022-08-08T22:29:14.592Z,66.43
2022-08-08T22:31:59.526Z,66.67
2022-08-08T22:34:33.106Z,66.79
2022-08-08T22:37:15.103Z,66.91
2022-08-08T22:40:01.241Z,66.94
2022-08-08T22:42:31.650Z,66.89
2022-08-08T22:45:01.088Z,67.09
2022-08-08T22:47:38.278Z,67.20
2022-08-08T22:50:27.364Z,67.40
2022-08-08T22:54:19.526Z,67.58
2022-08-08T22:55:59.231Z,67.96
2022-08-08T22:58:34.412Z,67.78
2022-08-08T23:01:26.483Z,67.99
2022-08-08T23:03:59.504Z,68.32
2022-08-08T23:06:28.048Z,68.47
2022-08-08T23:08:59.015Z,68.51
2022-08-08T23:12:28.396Z,68.51
2022-08-08T23:14:21.509Z,68.75
2022-08-08T23:16:54.755Z,68.74
2022-08-08T23:19:32.296Z,68.74
2022-08-08T23:22:04.646Z,68.90
2022-08-08T23:24:41.114Z,69.01
2022-08-08T23:27:17.254Z,69.21
2022-08-08T23:30:03.699Z,69.18
2022-08-08T23:32:33.198Z,69.38
2022-08-08T23:35:01.955Z,69.46
2022-08-08T23:37:54.260Z,69.62
2022-08-08T23:40:25.447Z,69.69
2022-08-08T23:42:53.962Z,69.80
2022-08-08T23:49:01.122Z,70.04
2022-08-08T23:49:07.965Z,69.94
2022-08-08T23:50:59.731Z,70.12
2022-08-08T23:54:04.742Z,70.32
2022-08-08T23:56:31.764Z,70.77
2022-08-08T23:59:02.581Z,70.89
